Kota Kinabalu, Malaysia
Current Conditions -  °F | °C
As of 4:30 PM on Friday 31 Oct 2014 (Local Time) from WBKK Reporting Station
Broken Clouds Broken Clouds  
Wind Chill: 86°   Ceiling: 27000
Heat Index: 97°   Visibility: 6mi
Dew Point: 77°   Wind: 3mph
Humidity: 74%   Direction: 270°W
Pressure: 29.71"   Gusts: NA
Location:  5.97°N, 116.07°E
Report Text: WBKK 310830Z 27003KT 9999 FEW014 FEW017CB SCT140 BKN270 30/25 Q1006 NOSIG
Loading
Personal Weather Stations






























Interactive Weather Map
Tropical Storm Tracking
New forecast layout! Learn more

10-Day Weather Forecast

Advertisements
Track Severe Weather on mobile